Time;durP1;ratioP1;P1;durP2;ratioP2;P2;SDS_P1;SDS_P2;PMS_P1;PMS_P2;Temp;Humidity;BMP_temperature;BMP_pressure;BME280_temperature;BME280_humidity;BME280_pressure;Samples;Min_cycle;Max_cycle;Signal;HPM_P1;HPM_P2
2023/05/29 00:02:02;;;;;;;0.73;0.25;;;;;;;-147.53;100.00;57128.34;10409968;28;20107;-82
2023/05/29 00:07:04;;;;;;;1.02;0.32;;;;;;;-147.53;100.00;57128.34;10408271;28;20064;-83
2023/05/29 00:12:07;;;;;;;2.60;0.70;;;;;;;-147.53;100.00;57128.34;10409521;28;20092;-82
2023/05/29 00:17:09;;;;;;;1.98;0.35;;;;;;;-147.53;100.00;57128.34;10409766;28;20865;-82
2023/05/29 00:22:10;;;;;;;2.70;0.65;;;;;;;-147.53;100.00;57128.34;10408290;28;20041;-82
2023/05/29 00:27:12;;;;;;;6.28;1.92;;;;;;;-147.53;100.00;57128.34;10407049;28;20156;-82
2023/05/29 00:32:13;;;;;;;6.55;0.60;;;;;;;-147.53;100.00;57128.34;10417436;28;20069;-82
2023/05/29 00:37:15;;;;;;;6.80;0.73;;;;;;;-147.53;100.00;57128.34;10419053;28;20049;-83
2023/05/29 00:42:17;;;;;;;4.82;1.05;;;;;;;-147.53;100.00;57128.34;10417709;28;20081;-82
2023/05/29 00:47:19;;;;;;;2.72;0.47;;;;;;;-147.53;100.00;57128.34;10417822;28;20049;-82
2023/05/29 00:52:21;;;;;;;2.63;0.60;;;;;;;-147.53;100.00;57128.34;10448430;28;20136;-82
2023/05/29 00:57:23;;;;;;;2.53;0.40;;;;;;;-147.53;100.00;57128.34;10416657;28;20053;-82
2023/05/29 01:02:24;;;;;;;5.22;1.05;;;;;;;-147.53;100.00;57128.34;10415161;28;20045;-82
2023/05/29 01:07:26;;;;;;;0.45;0.32;;;;;;;-147.53;100.00;57128.34;10449277;28;20052;-81
2023/05/29 01:12:30;;;;;;;2.55;0.47;;;;;;;-147.53;100.00;57128.34;10448564;28;20056;-81
2023/05/29 01:17:48;;;;;;;0.73;0.22;;;;;;;-147.53;100.00;57128.34;10417011;28;20057;-81
2023/05/29 01:23:05;;;;;;;2.85;0.88;;;;;;;-147.53;100.00;57128.34;10415359;28;20045;-83
2023/05/29 01:28:09;;;;;;;7.57;0.95;;;;;;;-147.53;100.00;57128.34;10408602;28;20657;-81
2023/05/29 01:33:15;;;;;;;0.17;0.17;;;;;;;-147.53;100.00;57128.34;10414225;28;20045;-82
2023/05/29 01:38:17;;;;;;;1.05;0.40;;;;;;;-147.53;100.00;57128.34;10416441;28;20073;-81
2023/05/29 01:43:19;;;;;;;1.15;0.38;;;;;;;-147.53;100.00;57128.34;10415630;28;20049;-81
2023/05/29 01:48:23;;;;;;;3.97;1.00;;;;;;;-147.53;100.00;57128.34;10431176;28;20060;-81
2023/05/29 01:53:25;;;;;;;1.13;0.57;;;;;;;-147.53;100.00;57128.34;10431497;28;20072;-82
2023/05/29 01:58:29;;;;;;;1.80;0.52;;;;;;;-147.53;100.00;57128.34;10447447;28;20049;-82
2023/05/29 02:03:30;;;;;;;4.28;1.33;;;;;;;-147.53;100.00;57128.34;10446822;28;20051;-82
2023/05/29 02:08:32;;;;;;;1.48;0.13;;;;;;;-147.53;100.00;57128.34;10447533;28;20047;-81
2023/05/29 02:13:34;;;;;;;0.17;0.17;;;;;;;-147.53;100.00;57128.34;10415232;28;20072;-81
2023/05/29 02:18:35;;;;;;;0.73;0.60;;;;;;;-147.53;100.00;57128.34;10414102;28;20065;-82
2023/05/29 02:23:37;;;;;;;2.97;0.85;;;;;;;-147.53;100.00;57128.34;10415812;28;20523;-82
2023/05/29 02:28:39;;;;;;;2.75;0.93;;;;;;;-147.53;100.00;57128.34;10416909;28;20100;-82
2023/05/29 02:33:41;;;;;;;1.08;0.40;;;;;;;-147.53;100.00;57128.34;10417662;28;20041;-81
2023/05/29 02:38:42;;;;;;;4.30;0.50;;;;;;;-147.53;100.00;57128.34;10413447;28;20065;-82
2023/05/29 02:43:44;;;;;;;1.00;0.68;;;;;;;-147.53;100.00;57128.34;10412753;28;20068;-81
2023/05/29 02:48:46;;;;;;;0.40;0.22;;;;;;;-147.53;100.00;57128.34;10413631;28;20056;-82
2023/05/29 02:53:48;;;;;;;0.57;0.25;;;;;;;-147.53;100.00;57128.34;10413638;28;20046;-81
2023/05/29 02:58:52;;;;;;;2.47;1.10;;;;;;;-147.53;100.00;57128.34;10413954;28;20060;-81
2023/05/29 03:03:55;;;;;;;2.25;1.42;;;;;;;-147.53;100.00;57128.34;10398578;28;20050;-81
2023/05/29 03:08:59;;;;;;;0.90;0.43;;;;;;;-147.53;100.00;57128.34;10406436;28;20061;-82
2023/05/29 03:14:01;;;;;;;4.25;0.47;;;;;;;-147.53;100.00;57128.34;10416334;28;20120;-82
2023/05/29 03:19:03;;;;;;;4.45;1.05;;;;;;;-147.53;100.00;57128.34;10416068;28;20056;-82
2023/05/29 03:24:05;;;;;;;1.25;0.40;;;;;;;-147.53;100.00;57128.34;10415177;28;20053;-82
2023/05/29 03:29:08;;;;;;;1.10;0.70;;;;;;;-147.53;100.00;57128.34;10448020;28;20048;-82
2023/05/29 03:34:10;;;;;;;1.10;0.40;;;;;;;-147.53;100.00;57128.34;10415217;28;20103;-82
2023/05/29 03:39:15;;;;;;;1.30;0.63;;;;;;;-147.53;100.00;57128.34;10419345;28;20069;-82
2023/05/29 03:44:17;;;;;;;3.15;0.70;;;;;;;-147.53;100.00;57128.34;10415382;28;20045;-82
2023/05/29 03:49:19;;;;;;;2.65;0.40;;;;;;;-147.53;100.00;57128.34;10406332;28;20049;-82
2023/05/29 03:54:21;;;;;;;4.65;1.83;;;;;;;-147.53;100.00;57128.34;10412777;28;20064;-81
2023/05/29 03:59:23;;;;;;;0.47;0.35;;;;;;;-147.53;100.00;57128.34;10411688;28;20045;-81
2023/05/29 04:04:26;;;;;;;0.15;0.15;;;;;;;-147.53;100.00;57128.34;10417675;28;20046;-81
2023/05/29 04:09:28;;;;;;;7.88;0.45;;;;;;;-147.53;100.00;57128.34;10431086;28;20152;-81
2023/05/29 04:14:30;;;;;;;9.93;1.80;;;;;;;-147.53;100.00;57128.34;10420015;28;20561;-81
2023/05/29 04:19:32;;;;;;;4.18;1.60;;;;;;;-147.53;100.00;57128.34;10436592;28;20064;-81
2023/05/29 04:24:35;;;;;;;1.55;0.82;;;;;;;-147.53;100.00;57128.34;10435888;28;20347;-81
2023/05/29 04:29:40;;;;;;;8.48;0.95;;;;;;;-147.53;100.00;57128.34;10403305;28;20058;-82
2023/05/29 04:34:44;;;;;;;1.35;0.45;;;;;;;-147.53;100.00;57128.34;10419615;28;20056;-82
2023/05/29 04:39:51;;;;;;;0.70;0.30;;;;;;;-147.53;100.00;57128.34;10419022;28;20045;-82
2023/05/29 04:44:58;;;;;;;0.80;0.33;;;;;;;-147.53;100.00;57128.34;10418828;28;20592;-82
2023/05/29 04:50:00;;;;;;;5.13;0.43;;;;;;;-147.53;100.00;57128.34;10401585;28;20045;-82
2023/05/29 04:55:01;;;;;;;5.63;0.60;;;;;;;-147.53;100.00;57128.34;10418587;28;20041;-82
2023/05/29 05:00:25;;;;;;;1.27;0.60;;;;;;;-147.53;100.00;57128.34;10411074;28;20049;-82
2023/05/29 05:05:25;;;;;;;3.00;0.77;;;;;;;-147.53;100.00;57128.34;10447627;28;20072;-82
2023/05/29 05:10:31;;;;;;;0.30;0.30;;;;;;;-147.53;100.00;57128.34;10417373;28;20045;-81
2023/05/29 05:15:33;;;;;;;5.20;0.88;;;;;;;-147.53;100.00;57128.34;10416238;28;20049;-82
2023/05/29 05:20:35;;;;;;;0.82;0.30;;;;;;;-147.53;100.00;57128.34;10414355;28;20045;-82
2023/05/29 05:25:38;;;;;;;1.67;1.15;;;;;;;-147.53;100.00;57128.34;10440191;28;20384;-82
2023/05/29 05:30:39;;;;;;;3.97;0.65;;;;;;;-147.53;100.00;57128.34;10416142;28;20076;-82
2023/05/29 05:35:42;;;;;;;1.55;0.77;;;;;;;-147.53;100.00;57128.34;10412403;28;20575;-83
2023/05/29 05:40:44;;;;;;;3.05;0.68;;;;;;;-147.53;100.00;57128.34;10406255;28;20053;-83
2023/05/29 05:45:53;;;;;;;3.22;0.65;;;;;;;-147.53;100.00;57128.34;10411480;28;20845;-82
2023/05/29 05:50:55;;;;;;;1.95;0.30;;;;;;;-147.53;100.00;57128.34;10404742;28;20232;-82
2023/05/29 05:55:57;;;;;;;0.40;0.40;;;;;;;-147.53;100.00;57128.34;10391885;28;20057;-83
2023/05/29 06:01:00;;;;;;;4.05;0.60;;;;;;;-147.53;100.00;57128.34;10407135;28;20473;-83
2023/05/29 06:06:03;;;;;;;2.92;1.27;;;;;;;-147.53;100.00;57128.34;10390384;28;20473;-83
2023/05/29 06:11:05;;;;;;;4.78;0.70;;;;;;;-147.53;100.00;57128.34;10408538;28;20045;-82
2023/05/29 06:16:09;;;;;;;3.55;0.70;;;;;;;-147.53;100.00;57128.34;10388712;28;20053;-81
2023/05/29 06:21:14;;;;;;;4.43;0.77;;;;;;;-147.53;100.00;57128.34;10385516;28;20519;-82
2023/05/29 06:26:24;;;;;;;4.43;0.95;;;;;;;-147.53;100.00;57128.34;10435418;28;20049;-83
2023/05/29 06:31:28;;;;;;;3.25;0.75;;;;;;;-147.53;100.00;57128.34;10399558;28;20069;-84
2023/05/29 06:36:32;;;;;;;3.13;0.73;;;;;;;-147.53;100.00;57128.34;10435075;28;20045;-83
2023/05/29 06:41:34;;;;;;;0.98;0.57;;;;;;;-147.53;100.00;57128.34;10405217;28;20049;-82
2023/05/29 06:46:36;;;;;;;7.15;0.88;;;;;;;-147.53;100.00;57128.34;10413072;28;20073;-82
2023/05/29 06:51:37;;;;;;;0.88;0.65;;;;;;;-147.53;100.00;57128.34;10406595;28;20685;-84
2023/05/29 06:56:58;;;;;;;3.20;0.82;;;;;;;-147.53;100.00;57128.34;10421150;28;20045;-83
2023/05/29 07:02:12;;;;;;;3.60;1.30;;;;;;;-147.53;100.00;57128.34;10380905;28;20053;-83
2023/05/29 07:07:14;;;;;;;8.93;1.33;;;;;;;-147.53;100.00;57128.34;10399122;28;20135;-84
2023/05/29 07:12:16;;;;;;;5.57;1.40;;;;;;;-147.53;100.00;57128.34;10398656;28;20046;-83
2023/05/29 07:17:17;;;;;;;5.72;1.02;;;;;;;-147.53;100.00;57128.34;10400355;28;20053;-83
2023/05/29 07:22:22;;;;;;;2.13;0.65;;;;;;;-147.53;100.00;57128.34;10398986;28;20056;-83
2023/05/29 07:27:24;;;;;;;3.33;1.08;;;;;;;-147.53;100.00;57128.34;10399861;28;20148;-83
2023/05/29 07:32:26;;;;;;;10.57;1.60;;;;;;;-147.53;100.00;57128.34;10389270;28;20103;-84
2023/05/29 07:37:29;;;;;;;6.15;1.00;;;;;;;-147.53;100.00;57128.34;10423753;28;20056;-83
2023/05/29 07:42:33;;;;;;;6.55;1.52;;;;;;;-147.53;100.00;57128.34;10405917;28;20050;-82
2023/05/29 07:47:36;;;;;;;2.92;0.85;;;;;;;-147.53;100.00;57128.34;10404422;28;20049;-84
2023/05/29 07:52:39;;;;;;;9.40;1.27;;;;;;;-147.53;100.00;57128.34;10410416;28;20422;-83
2023/05/29 07:57:42;;;;;;;2.30;0.85;;;;;;;-147.53;100.00;57128.34;10393281;28;20128;-84
2023/05/29 08:02:43;;;;;;;6.68;1.00;;;;;;;-147.53;100.00;57128.34;10413213;28;20060;-83
2023/05/29 08:08:09;;;;;;;8.95;1.23;;;;;;;-147.53;100.00;57128.34;10363043;28;20063;-84
2023/05/29 08:13:10;;;;;;;13.27;1.73;;;;;;;-147.53;100.00;57128.34;10384198;28;20048;-84
2023/05/29 08:18:13;;;;;;;6.70;1.20;;;;;;;-147.53;100.00;57128.34;10408773;28;20542;-81
2023/05/29 08:23:15;;;;;;;7.45;1.33;;;;;;;-147.53;100.00;57128.34;10403435;28;20045;-83
2023/05/29 08:28:17;;;;;;;3.15;0.90;;;;;;;-147.53;100.00;57128.34;10402958;28;20069;-83
2023/05/29 08:33:18;;;;;;;4.45;1.08;;;;;;;-147.53;100.00;57128.34;10405560;28;20076;-81
2023/05/29 08:38:21;;;;;;;2.67;1.20;;;;;;;-147.53;100.00;57128.34;10406409;28;20618;-83
2023/05/29 08:43:23;;;;;;;6.55;1.42;;;;;;;-147.53;100.00;57128.34;10406359;28;20164;-85
2023/05/29 08:48:27;;;;;;;6.90;1.40;;;;;;;-147.53;100.00;57128.34;10404574;28;20049;-85
2023/05/29 08:53:31;;;;;;;6.00;0.90;;;;;;;-147.53;100.00;57128.34;10405007;28;20045;-86
2023/05/29 08:58:34;;;;;;;3.20;1.42;;;;;;;-147.53;100.00;57128.34;10404744;28;20964;-86
2023/05/29 09:03:37;;;;;;;9.95;1.67;;;;;;;-147.53;100.00;57128.34;10404501;28;20049;-83
2023/05/29 09:08:39;;;;;;;2.90;0.90;;;;;;;-147.53;100.00;57128.34;10407989;28;20510;-84
2023/05/29 09:13:41;;;;;;;5.22;1.35;;;;;;;-147.53;100.00;57128.34;10391311;28;20055;-82
2023/05/29 09:18:45;;;;;;;5.53;1.55;;;;;;;-147.53;100.00;57128.34;10404364;28;20376;-82
2023/05/29 09:23:52;;;;;;;5.53;1.17;;;;;;;-147.53;100.00;57128.34;10406340;28;20049;-81
2023/05/29 09:28:55;;;;;;;6.28;1.00;;;;;;;-147.53;100.00;57128.34;10435740;28;20071;-82
2023/05/29 09:34:02;;;;;;;5.15;1.05;;;;;;;-147.53;100.00;57128.34;10404019;28;20502;-84
2023/05/29 09:39:04;;;;;;;6.88;1.27;;;;;;;-147.53;100.00;57128.34;10381982;28;20430;-82
2023/05/29 09:44:17;;;;;;;7.45;1.48;;;;;;;-147.53;100.00;57128.34;10404617;28;20049;-87
2023/05/29 09:49:22;;;;;;;9.85;1.63;;;;;;;-147.53;100.00;57128.34;10398302;28;20550;-84
2023/05/29 09:54:28;;;;;;;7.22;1.40;;;;;;;-147.53;100.00;57128.34;10399412;28;20152;-83
2023/05/29 09:59:31;;;;;;;7.38;1.10;;;;;;;-147.53;100.00;57128.34;10401198;28;20124;-82
2023/05/29 10:04:33;;;;;;;5.72;1.45;;;;;;;-147.53;100.00;57128.34;10401617;28;20049;-83
2023/05/29 10:09:41;;;;;;;9.30;1.20;;;;;;;-147.53;100.00;57128.34;10406557;28;20041;-81
2023/05/29 10:14:45;;;;;;;3.42;1.10;;;;;;;-147.53;100.00;57128.34;10400882;28;20038;-83
2023/05/29 10:19:49;;;;;;;11.50;1.55;;;;;;;-147.53;100.00;57128.34;10401757;28;20130;-82
2023/05/29 10:24:52;;;;;;;9.20;1.85;;;;;;;-147.53;100.00;57128.34;10397727;28;20075;-82
2023/05/29 10:30:05;;;;;;;6.38;1.45;;;;;;;-147.53;100.00;57128.34;10397953;28;20080;-81
2023/05/29 10:35:18;;;;;;;7.15;1.33;;;;;;;-147.53;100.00;57128.34;10387671;28;20099;-80
2023/05/29 10:40:26;;;;;;;5.20;1.60;;;;;;;-147.53;100.00;57128.34;10382734;28;20103;-82
2023/05/29 10:45:28;;;;;;;8.85;1.70;;;;;;;-147.53;100.00;57128.34;10408857;28;20046;-85
2023/05/29 10:50:43;;;;;;;10.13;1.30;;;;;;;-147.53;100.00;57128.34;10381225;28;20045;-82
2023/05/29 10:55:45;;;;;;;5.13;1.17;;;;;;;-147.53;100.00;57128.34;10403066;28;20034;-82
2023/05/29 11:00:48;;;;;;;11.95;1.40;;;;;;;-147.53;100.00;57128.34;10399936;28;20037;-82
2023/05/29 11:06:04;;;;;;;5.88;1.48;;;;;;;-147.53;100.00;57128.34;10392303;28;20053;-84
2023/05/29 11:11:26;;;;;;;5.10;1.20;;;;;;;-147.53;100.00;57128.34;10395484;28;20063;-84
2023/05/29 11:16:30;;;;;;;9.68;1.58;;;;;;;-147.53;100.00;57128.34;10382394;28;20135;-84
2023/05/29 11:21:52;;;;;;;6.43;1.77;;;;;;;-147.53;100.00;57128.34;10369968;28;20137;-84
2023/05/29 11:26:58;;;;;;;3.50;1.27;;;;;;;-147.53;100.00;57128.34;10402409;28;20042;-84
2023/05/29 11:32:04;;;;;;;46.33;17.15;;;;;;;-147.53;100.00;57128.34;10394704;28;20076;-83
2023/05/29 11:37:07;;;;;;;31.42;14.32;;;;;;;-147.53;100.00;57128.34;10379202;28;20038;-83
2023/05/29 11:42:09;;;;;;;246.60;119.28;;;;;;;-147.53;100.00;57128.34;10383972;28;20059;-83
2023/05/29 11:47:11;;;;;;;21.05;8.88;;;;;;;-147.53;100.00;57128.34;10376950;28;20111;-82
2023/05/29 11:52:14;;;;;;;17.50;6.97;;;;;;;-147.53;100.00;57128.34;10393663;28;20913;-81
2023/05/29 11:57:19;;;;;;;22.13;8.27;;;;;;;-147.53;100.00;57128.34;10385157;28;20048;-83
2023/05/29 12:02:22;;;;;;;10.52;3.38;;;;;;;-147.53;100.00;57128.34;10386400;28;20053;-83
2023/05/29 12:07:24;;;;;;;11.35;3.90;;;;;;;-147.53;100.00;57128.34;10392405;28;20674;-81
2023/05/29 12:12:29;;;;;;;10.90;4.55;;;;;;;-147.53;100.00;57128.34;10390609;28;20132;-80
2023/05/29 12:17:31;;;;;;;8.18;1.90;;;;;;;-147.53;100.00;57128.34;10403379;28;20049;-76
2023/05/29 12:22:37;;;;;;;8.43;1.55;;;;;;;-147.53;100.00;57128.34;10404047;28;20160;-77
2023/05/29 12:27:42;;;;;;;4.45;1.20;;;;;;;-147.53;100.00;57128.34;10404998;28;20099;-80
2023/05/29 12:32:46;;;;;;;4.45;1.33;;;;;;;-147.53;100.00;57128.34;10405611;28;20145;-79
2023/05/29 12:37:54;;;;;;;12.57;1.98;;;;;;;-147.53;100.00;57128.34;10414329;28;20231;-80
2023/05/29 12:42:58;;;;;;;4.57;1.17;;;;;;;-147.53;100.00;57128.34;10409036;28;20108;-79
2023/05/29 12:48:05;;;;;;;9.82;2.05;;;;;;;-147.53;100.00;57128.34;10415602;28;20128;-79
2023/05/29 12:53:09;;;;;;;7.00;1.58;;;;;;;-147.53;100.00;57128.34;10418725;28;20045;-79
2023/05/29 12:58:13;;;;;;;5.90;2.03;;;;;;;-147.53;100.00;57128.34;10416303;28;20065;-79
2023/05/29 13:03:14;;;;;;;8.80;1.75;;;;;;;-147.53;100.00;57128.34;10416056;28;20057;-78
2023/05/29 13:08:16;;;;;;;6.32;1.10;;;;;;;-147.53;100.00;57128.34;10415351;28;20095;-78
2023/05/29 13:13:18;;;;;;;8.48;1.70;;;;;;;-147.53;100.00;57128.34;10414942;28;20037;-78
2023/05/29 13:18:19;;;;;;;8.30;1.35;;;;;;;-147.53;100.00;57128.34;10414475;28;20045;-79
2023/05/29 13:23:21;;;;;;;6.25;1.63;;;;;;;-147.53;100.00;57128.34;10414921;28;20050;-79
2023/05/29 13:28:24;;;;;;;5.90;1.23;;;;;;;-147.53;100.00;57128.34;10397331;28;20133;-79
2023/05/29 13:33:25;;;;;;;4.57;1.13;;;;;;;-147.53;100.00;57128.34;10415855;28;20053;-78
2023/05/29 13:38:27;;;;;;;2.08;0.80;;;;;;;-147.53;100.00;57128.34;10416568;28;20049;-80
2023/05/29 13:43:29;;;;;;;5.25;1.45;;;;;;;-147.53;100.00;57128.34;10417771;28;20513;-79
2023/05/29 13:48:44;;;;;;;4.13;1.48;;;;;;;-147.53;100.00;57128.34;10412251;28;20458;-79
2023/05/29 13:53:46;;;;;;;9.18;1.15;;;;;;;-147.53;100.00;57128.34;10414195;28;20059;-80
2023/05/29 13:58:48;;;;;;;1.30;0.47;;;;;;;-147.53;100.00;57128.34;10414544;28;20128;-79
2023/05/29 14:03:49;;;;;;;3.60;0.70;;;;;;;-147.53;100.00;57128.34;10413961;28;20130;-79
2023/05/29 14:08:55;;;;;;;5.03;0.95;;;;;;;-147.53;100.00;57128.34;10413994;28;20116;-78
2023/05/29 14:13:57;;;;;;;2.67;1.45;;;;;;;-147.53;100.00;57128.34;10416519;28;20083;-79
2023/05/29 14:18:59;;;;;;;8.25;1.30;;;;;;;-147.53;100.00;57128.34;10412346;28;20041;-78
2023/05/29 14:24:01;;;;;;;3.22;1.10;;;;;;;-147.53;100.00;57128.34;10415339;28;20129;-79
2023/05/29 14:29:03;;;;;;;1.17;0.63;;;;;;;-147.53;100.00;57128.34;10413112;28;20133;-79
2023/05/29 14:34:14;;;;;;;4.93;1.30;;;;;;;-147.53;100.00;57128.34;10414518;28;20068;-79
2023/05/29 14:39:16;;;;;;;7.03;1.30;;;;;;;-147.53;100.00;57128.34;10414441;28;20046;-79
2023/05/29 14:44:18;;;;;;;6.68;1.17;;;;;;;-147.53;100.00;57128.34;10414868;28;20570;-79
2023/05/29 14:49:21;;;;;;;8.55;1.40;;;;;;;-147.53;100.00;57128.34;10413613;28;20045;-79
2023/05/29 14:54:23;;;;;;;1.63;0.82;;;;;;;-147.53;100.00;57128.34;10413141;28;20072;-79
2023/05/29 14:59:25;;;;;;;4.45;1.25;;;;;;;-147.53;100.00;57128.34;10414131;28;20073;-78
2023/05/29 15:04:27;;;;;;;2.97;0.75;;;;;;;-147.53;100.00;57128.34;10415363;28;20507;-79
2023/05/29 15:09:29;;;;;;;6.05;0.98;;;;;;;-147.53;100.00;57128.34;10414456;28;20045;-79
2023/05/29 15:14:31;;;;;;;2.13;0.60;;;;;;;-147.53;100.00;57128.34;10415410;28;20602;-79
2023/05/29 15:19:33;;;;;;;2.78;0.57;;;;;;;-147.53;100.00;57128.34;10403524;28;20060;-79
2023/05/29 15:24:35;;;;;;;3.80;1.35;;;;;;;-147.53;100.00;57128.34;10413082;28;20542;-78
2023/05/29 15:29:37;;;;;;;2.15;0.73;;;;;;;-147.53;100.00;57128.34;10405783;28;20069;-79
2023/05/29 15:34:53;;;;;;;1.95;0.77;;;;;;;-147.53;100.00;57128.34;10416121;28;20433;-80
2023/05/29 15:39:56;;;;;;;2.42;0.80;;;;;;;-147.53;100.00;57128.34;10404271;28;20073;-81
2023/05/29 15:44:58;;;;;;;4.60;0.90;;;;;;;-147.53;100.00;57128.34;10407794;28;20754;-82
2023/05/29 15:50:01;;;;;;;6.43;0.90;;;;;;;-147.53;100.00;57128.34;10400788;28;20437;-80
2023/05/29 15:55:03;;;;;;;2.75;1.17;;;;;;;-147.53;100.00;57128.34;10387124;28;20049;-82
2023/05/29 16:00:05;;;;;;;5.68;1.30;;;;;;;-147.53;100.00;57128.34;10414485;28;20132;-83
2023/05/29 16:05:12;;;;;;;7.00;1.35;;;;;;;-147.53;100.00;57128.34;10415066;28;20075;-82
2023/05/29 16:10:16;;;;;;;4.20;0.95;;;;;;;-147.53;100.00;57128.34;10407799;28;20616;-85
2023/05/29 16:15:18;;;;;;;2.25;0.80;;;;;;;-147.53;100.00;57128.34;10397778;28;20044;-80
2023/05/29 16:20:22;;;;;;;1.60;0.90;;;;;;;-147.53;100.00;57128.34;10425844;28;20037;-86
2023/05/29 16:25:25;;;;;;;7.25;1.05;;;;;;;-147.53;100.00;57128.34;10404377;28;20130;-84
2023/05/29 16:30:26;;;;;;;2.33;0.90;;;;;;;-147.53;100.00;57128.34;10405894;28;20396;-88
2023/05/29 16:35:28;;;;;;;4.57;0.93;;;;;;;-147.53;100.00;57128.34;10388016;28;20095;-85
2023/05/29 16:45:59;;;;;;;4.65;1.02;;;;;;;-147.53;100.00;57128.34;2950879;26;20056;-88
2023/05/29 16:51:13;;;;;;;9.55;1.40;;;;;;;-147.53;100.00;57128.34;10408825;28;20140;-88
2023/05/29 16:56:15;;;;;;;4.00;0.77;;;;;;;-147.53;100.00;57128.34;10419932;28;20499;-89
2023/05/29 17:01:24;;;;;;;2.67;0.68;;;;;;;-147.53;100.00;57128.34;10405777;28;20554;-89
2023/05/29 17:06:26;;;;;;;5.78;0.88;;;;;;;-147.53;100.00;57128.34;10404614;28;20157;-89
2023/05/29 17:11:28;;;;;;;6.18;0.98;;;;;;;-147.53;100.00;57128.34;10413848;28;20057;-88
2023/05/29 17:23:18;;;;;;;5.68;0.70;;;;;;;-147.53;100.00;57128.34;10745389;22;20053;-89
2023/05/29 17:29:17;;;;;;;6.45;1.17;;;;;;;-147.53;100.00;57128.34;10414778;28;20134;-89
2023/05/29 17:34:20;;;;;;;9.18;1.08;;;;;;;-147.53;100.00;57128.34;10460569;28;20056;-89
2023/05/29 17:39:21;;;;;;;7.75;0.80;;;;;;;-147.53;100.00;57128.34;10456318;28;20075;-89
2023/05/29 17:44:25;;;;;;;4.43;0.93;;;;;;;-147.53;100.00;57128.34;10455896;28;20098;-87
2023/05/29 17:49:27;;;;;;;7.38;0.57;;;;;;;-147.53;100.00;57128.34;10482424;28;20526;-87
2023/05/29 17:54:28;;;;;;;3.47;0.70;;;;;;;-147.53;100.00;57128.34;10446197;28;20091;-87
2023/05/29 17:59:31;;;;;;;0.90;0.40;;;;;;;-147.53;100.00;57128.34;10459360;28;20584;-89
2023/05/29 18:04:37;;;;;;;1.45;0.70;;;;;;;-147.53;100.00;57128.34;10440215;28;20048;-88
2023/05/29 18:09:42;;;;;;;5.70;1.10;;;;;;;-147.53;100.00;57128.34;10434800;28;20053;-87
2023/05/29 18:14:56;;;;;;;;;;;;;;;-147.53;100.00;57128.34;10433271;28;20088;-89
2023/05/29 18:20:16;;;;;;;1.02;0.50;;;;;;;-147.53;100.00;57128.34;10434913;28;19991;-89
2023/05/29 18:25:48;;;;;;;7.90;1.20;;;;;;;-147.53;100.00;57128.34;10403318;28;20055;-88
2023/05/29 18:31:15;;;;;;;4.97;1.00;;;;;;;-147.53;100.00;57128.34;10434697;28;20076;-88
2023/05/29 18:36:18;;;;;;;1.35;0.88;;;;;;;-147.53;100.00;57128.34;10428655;28;20091;-88
2023/05/29 18:41:24;;;;;;;2.55;0.82;;;;;;;-147.53;100.00;57128.34;10413717;28;20048;-88
2023/05/29 18:46:26;;;;;;;3.88;0.63;;;;;;;-147.53;100.00;57128.34;10397004;28;20056;-88
2023/05/29 18:51:34;;;;;;;7.50;0.90;;;;;;;-147.53;100.00;57128.34;10415974;28;20053;-89
2023/05/29 18:56:40;;;;;;;4.22;0.63;;;;;;;-147.53;100.00;57128.34;10418176;28;20049;-88
2023/05/29 19:01:42;;;;;;;7.07;0.88;;;;;;;-147.53;100.00;57128.34;10435535;28;20510;-89
2023/05/29 19:07:12;;;;;;;2.30;0.63;;;;;;;-147.53;100.00;57128.34;10417314;28;20041;-87
2023/05/29 19:12:23;;;;;;;2.80;0.77;;;;;;;-147.53;100.00;57128.34;10446042;28;20053;-90
2023/05/29 19:17:26;;;;;;;3.78;0.80;;;;;;;-147.53;100.00;57128.34;10410423;28;20533;-89
2023/05/29 19:22:51;;;;;;;1.02;0.45;;;;;;;-147.53;100.00;57128.34;10436457;28;20049;-89
2023/05/29 19:28:04;;;;;;;5.93;0.93;;;;;;;-147.53;100.00;57128.34;10402264;28;20048;-89
2023/05/29 19:39:12;;;;;;;3.90;0.70;;;;;;;-147.53;100.00;57128.34;10403874;28;20045;-90
2023/05/29 19:44:20;;;;;;;4.07;0.60;;;;;;;-147.53;100.00;57128.34;10408363;28;20052;-89
2023/05/29 19:49:27;;;;;;;5.13;1.13;;;;;;;-147.53;100.00;57128.34;10436518;28;20049;-88
2023/05/29 19:54:37;;;;;;;1.83;0.80;;;;;;;-147.53;100.00;57128.34;10449244;28;20056;-87
2023/05/29 20:00:13;;;;;;;2.08;0.52;;;;;;;-147.53;100.00;57128.34;10423667;28;20072;-89
2023/05/29 20:05:31;;;;;;;5.38;1.10;;;;;;;-147.53;100.00;57128.34;10406823;28;20110;-88
2023/05/29 20:10:41;;;;;;;4.18;1.30;;;;;;;-147.53;100.00;57128.34;10382777;28;20056;-90
2023/05/29 20:16:04;;;;;;;3.58;0.75;;;;;;;-147.53;100.00;57128.34;10401790;28;20080;-90
2023/05/29 20:21:23;;;;;;;;;;;;;;;;;;;;;
2023/05/29 20:27:14;;;;;;;5.50;0.52;;;;;;;-147.53;100.00;57128.34;10427678;28;20533;-90
2023/05/29 20:32:31;;;;;;;1.45;0.45;;;;;;;-147.53;100.00;57128.34;10441088;28;20064;-90
2023/05/29 20:38:16;;;;;;;1.63;0.75;;;;;;;-147.53;100.00;57128.34;10402445;28;20051;-90
2023/05/29 20:50:14;;;;;;;2.08;0.57;;;;;;;-147.53;100.00;57128.34;10334803;28;20053;-89
2023/05/29 20:55:52;;;;;;;3.00;0.68;;;;;;;-147.53;100.00;57128.34;10416413;28;20050;-90
2023/05/29 21:00:54;;;;;;;5.40;0.90;;;;;;;-147.53;100.00;57128.34;10416684;28;20514;-89
2023/05/29 21:06:33;;;;;;;4.72;0.80;;;;;;;-147.53;100.00;57128.34;10421600;28;20049;-90
2023/05/29 21:11:48;;;;;;;1.75;0.63;;;;;;;-147.53;100.00;57128.34;10401717;28;20194;-90
2023/05/29 21:17:32;;;;;;;7.82;1.20;;;;;;;-147.53;100.00;57128.34;10417471;28;20514;-91
2023/05/29 21:28:42;;;;;;;4.57;1.05;;;;;;;-147.53;100.00;57128.34;10448084;28;20048;-90
2023/05/29 21:33:49;;;;;;;8.60;0.90;;;;;;;-147.53;100.00;57128.34;10417257;28;20055;-90
2023/05/29 21:39:11;;;;;;;15.10;1.23;;;;;;;-147.53;100.00;57128.34;10423603;28;20052;-90
2023/05/29 21:44:13;;;;;;;4.30;1.27;;;;;;;-147.53;100.00;57128.34;10424561;28;20135;-89
2023/05/29 21:49:26;;;;;;;3.70;1.08;;;;;;;-147.53;100.00;57128.34;10422293;28;20048;-89
2023/05/29 22:00:44;;;;;;;1.27;0.63;;;;;;;-147.53;100.00;57128.34;10424851;28;20775;-90
2023/05/29 22:05:48;;;;;;;2.33;0.80;;;;;;;-147.53;100.00;57128.34;10430326;28;20112;-89
2023/05/29 22:10:59;;;;;;;5.68;0.70;;;;;;;-147.53;100.00;57128.34;10413684;28;20059;-90
2023/05/29 22:16:34;;;;;;;1.85;0.85;;;;;;;-147.53;100.00;57128.34;10396775;28;20516;-89
2023/05/29 22:21:52;;;;;;;1.25;0.60;;;;;;;-147.53;100.00;57128.34;10422214;28;20723;-90
2023/05/29 22:26:59;;;;;;;1.75;0.75;;;;;;;-147.53;100.00;57128.34;10420190;28;20136;-90
2023/05/29 22:32:17;;;;;;;5.97;1.27;;;;;;;-147.53;100.00;57128.34;10427296;28;20048;-89
2023/05/29 22:37:45;;;;;;;1.95;0.50;;;;;;;-147.53;100.00;57128.34;10429907;28;20068;-89
2023/05/29 22:43:00;;;;;;;4.97;0.80;;;;;;;-147.53;100.00;57128.34;10388091;28;20064;-89
2023/05/29 22:48:02;;;;;;;2.10;0.88;;;;;;;-147.53;100.00;57128.34;10414830;28;20358;-89
2023/05/29 22:53:08;;;;;;;3.90;1.13;;;;;;;-147.53;100.00;57128.34;10445962;28;20072;-88
2023/05/29 22:58:10;;;;;;;2.25;1.27;;;;;;;-147.53;100.00;57128.34;10431331;28;20041;-88
2023/05/29 23:03:20;;;;;;;1.30;0.93;;;;;;;-147.53;100.00;57128.34;10451847;28;20064;-88
2023/05/29 23:08:28;;;;;;;1.67;0.95;;;;;;;-147.53;100.00;57128.34;10417619;28;20053;-89
2023/05/29 23:13:31;;;;;;;4.60;1.17;;;;;;;-147.53;100.00;57128.34;10424703;28;20514;-89
2023/05/29 23:18:41;;;;;;;5.90;1.63;;;;;;;-147.53;100.00;57128.34;10452027;28;20056;-88
2023/05/29 23:23:43;;;;;;;7.68;1.02;;;;;;;-147.53;100.00;57128.34;10431123;28;20514;-88
2023/05/29 23:29:10;;;;;;;3.22;1.08;;;;;;;-147.53;100.00;57128.34;10410297;28;20180;-87
2023/05/29 23:34:21;;;;;;;2.88;0.80;;;;;;;-147.53;100.00;57128.34;10423297;28;20057;-88